createdAt,value
2017-10-30T00:00:18.851Z,6.98
2017-10-30T00:01:27.715Z,7
2017-10-30T00:02:36.585Z,6.95
2017-10-30T00:03:45.123Z,7
2017-10-30T00:04:54.336Z,7.04
2017-10-30T00:06:03.543Z,7
2017-10-30T00:07:12.083Z,6.98
2017-10-30T00:08:20.955Z,7.03
2017-10-30T00:09:30.166Z,7
2017-10-30T00:10:38.705Z,7.05
2017-10-30T00:11:47.912Z,7.01
2017-10-30T00:12:56.788Z,7.01
2017-10-30T00:14:05.660Z,7.04
2017-10-30T00:15:14.531Z,7.03
2017-10-30T00:16:23.748Z,6.98
2017-10-30T00:17:32.622Z,6.97
2017-10-30T00:18:42.546Z,6.94
2017-10-30T00:19:51.421Z,7.01
2017-10-30T00:20:59.974Z,6.94
2017-10-30T00:22:08.849Z,6.95
2017-10-30T00:23:17.725Z,7.01
2017-10-30T00:24:26.263Z,6.95
2017-10-30T00:25:35.480Z,6.95
2017-10-30T00:26:44.360Z,6.95
2017-10-30T00:27:53.233Z,6.94
2017-10-30T00:29:02.111Z,6.93
2017-10-30T00:30:11.319Z,6.86
2017-10-30T00:31:20.196Z,6.97
2017-10-30T00:32:29.076Z,6.91
2017-10-30T00:33:37.951Z,6.9
2017-10-30T00:34:47.186Z,6.93
2017-10-30T00:35:56.392Z,6.91
2017-10-30T00:37:05.599Z,6.83
2017-10-30T00:38:14.136Z,6.85
2017-10-30T00:39:23.691Z,6.83
2017-10-30T00:40:32.569Z,6.83
2017-10-30T00:41:41.107Z,6.83
2017-10-30T00:42:49.646Z,6.82
2017-10-30T00:43:58.516Z,6.8
2017-10-30T00:45:07.397Z,6.85
2017-10-30T00:46:16.276Z,6.76
2017-10-30T00:47:25.158Z,6.82
2017-10-30T00:48:34.031Z,6.76
2017-10-30T00:49:42.570Z,6.72
2017-10-30T00:50:51.453Z,6.72
2017-10-30T00:52:00.653Z,6.83
2017-10-30T00:53:09.192Z,6.67
2017-10-30T00:54:18.062Z,6.78
2017-10-30T00:55:26.935Z,6.67
2017-10-30T00:56:35.471Z,6.79
2017-10-30T00:57:44.343Z,6.79
2017-10-30T00:58:53.216Z,6.73
2017-10-30T01:00:02.441Z,6.79
2017-10-30T01:01:11.313Z,6.65
2017-10-30T01:02:20.185Z,6.76
2017-10-30T01:03:28.722Z,6.72
2017-10-30T01:04:38.261Z,6.68
2017-10-30T01:05:47.133Z,6.67
2017-10-30T01:06:56.007Z,6.65
2017-10-30T01:08:04.541Z,6.75
2017-10-30T01:09:13.417Z,6.61
2017-10-30T01:10:21.955Z,6.65
2017-10-30T01:11:31.167Z,6.62
2017-10-30T01:12:40.038Z,6.58
2017-10-30T01:13:49.248Z,6.6
2017-10-30T01:14:58.460Z,6.57
2017-10-30T01:16:06.993Z,6.61
2017-10-30T01:17:15.871Z,6.6
2017-10-30T01:18:24.753Z,6.62
2017-10-30T01:19:33.960Z,6.6
2017-10-30T01:20:42.829Z,6.64
2017-10-30T01:21:51.703Z,6.58
2017-10-30T01:23:00.577Z,6.6
2017-10-30T01:24:09.446Z,6.58
2017-10-30T01:25:18.656Z,6.6
2017-10-30T01:26:27.197Z,6.52
2017-10-30T01:27:35.737Z,6.55
2017-10-30T01:28:44.608Z,6.57
2017-10-30T01:29:53.483Z,6.58
2017-10-30T01:31:02.356Z,6.52
2017-10-30T01:32:11.230Z,6.55
2017-10-30T01:33:20.442Z,6.49
2017-10-30T01:34:29.312Z,6.49
2017-10-30T01:35:38.185Z,6.55
2017-10-30T01:36:47.746Z,6.49
2017-10-30T01:37:56.956Z,6.47
2017-10-30T01:39:06.171Z,6.49
2017-10-30T01:40:15.385Z,6.33
2017-10-30T01:41:23.924Z,6.4
2017-10-30T01:42:33.134Z,6.42
2017-10-30T01:43:42.012Z,6.39
2017-10-30T01:44:50.541Z,6.42
2017-10-30T01:45:59.420Z,6.44
2017-10-30T01:47:08.293Z,6.43
2017-10-30T01:48:17.503Z,6.39
2017-10-30T01:49:26.042Z,6.36
2017-10-30T01:50:34.920Z,6.34
2017-10-30T01:51:44.135Z,6.4
2017-10-30T01:52:52.674Z,6.37
2017-10-30T01:54:01.548Z,6.39
2017-10-30T01:55:10.422Z,6.39
2017-10-30T01:56:18.989Z,6.39
2017-10-30T01:57:27.828Z,6.39
2017-10-30T01:58:36.702Z,6.36
2017-10-30T01:59:45.238Z,6.39
2017-10-30T02:00:53.775Z,6.44
2017-10-30T02:02:02.313Z,6.47
2017-10-30T02:03:10.849Z,6.43
2017-10-30T02:04:19.720Z,6.55
2017-10-30T02:05:28.258Z,6.52
2017-10-30T02:06:37.132Z,6.52
2017-10-30T02:07:46.340Z,6.62
2017-10-30T02:08:55.547Z,6.62
2017-10-30T02:10:04.423Z,6.55
2017-10-30T02:11:12.960Z,6.58
2017-10-30T02:12:22.169Z,6.62
2017-10-30T02:13:31.042Z,6.6
2017-10-30T02:14:39.579Z,6.65
2017-10-30T02:15:48.112Z,6.68
2017-10-30T02:16:56.656Z,6.68
2017-10-30T02:18:05.868Z,6.75
2017-10-30T02:19:14.740Z,6.76
2017-10-30T02:20:23.278Z,6.73
2017-10-30T02:21:32.815Z,6.78
2017-10-30T02:22:41.686Z,6.68
2017-10-30T02:23:50.222Z,6.68
2017-10-30T02:24:58.761Z,6.76
2017-10-30T02:26:07.298Z,6.79
2017-10-30T02:27:16.176Z,6.76
2017-10-30T02:28:24.718Z,6.85
2017-10-30T02:29:33.258Z,6.83
2017-10-30T02:30:42.132Z,6.83
2017-10-30T02:31:50.667Z,6.79
2017-10-30T02:32:59.881Z,6.88
2017-10-30T02:34:09.112Z,7.04
2017-10-30T02:35:17.990Z,6.97
2017-10-30T02:36:27.197Z,6.97
2017-10-30T02:37:36.071Z,7.01
2017-10-30T02:38:44.609Z,7.01
2017-10-30T02:39:53.481Z,7.13
2017-10-30T02:41:02.355Z,7.03
2017-10-30T02:42:10.892Z,7.05
2017-10-30T02:43:19.433Z,7
2017-10-30T02:44:27.968Z,7.01
2017-10-30T02:45:36.840Z,7.05
2017-10-30T02:46:45.710Z,7.11
2017-10-30T02:47:54.591Z,7.18
2017-10-30T02:49:03.131Z,7.13
2017-10-30T02:50:12.344Z,7.19
2017-10-30T02:51:21.220Z,7.18
2017-10-30T02:52:30.095Z,7.15
2017-10-30T02:53:38.967Z,7.11
2017-10-30T02:54:48.183Z,7.01
2017-10-30T02:55:57.401Z,7.12
2017-10-30T02:57:05.940Z,7
2017-10-30T02:58:14.810Z,6.98
2017-10-30T02:59:23.346Z,7
2017-10-30T03:00:32.560Z,6.97
2017-10-30T03:01:41.770Z,7
2017-10-30T03:02:50.646Z,7.01
2017-10-30T03:03:59.859Z,6.88
2017-10-30T03:05:08.398Z,6.86
2017-10-30T03:06:17.610Z,6.91
2017-10-30T03:07:26.483Z,6.85
2017-10-30T03:08:35.355Z,6.91
2017-10-30T03:09:44.569Z,6.86
2017-10-30T03:10:54.125Z,6.82
2017-10-30T03:12:03.334Z,6.75
2017-10-30T03:13:11.873Z,6.76
2017-10-30T03:14:21.429Z,6.78
2017-10-30T03:15:30.638Z,6.76
2017-10-30T03:16:39.512Z,6.75
2017-10-30T03:17:48.725Z,6.75
2017-10-30T03:18:57.597Z,6.75
2017-10-30T03:20:06.473Z,6.73
2017-10-30T03:21:15.008Z,6.73
2017-10-30T03:22:23.545Z,6.72
2017-10-30T03:23:32.416Z,6.62
2017-10-30T03:24:40.958Z,6.62
2017-10-30T03:25:49.502Z,6.57
2017-10-30T03:26:59.065Z,6.7
2017-10-30T03:28:07.600Z,6.58
2017-10-30T03:29:16.475Z,6.6
2017-10-30T03:30:26.029Z,6.57
2017-10-30T03:31:35.243Z,6.57
2017-10-30T03:32:44.454Z,6.6
2017-10-30T03:33:54.347Z,6.61
2017-10-30T03:35:03.563Z,6.57
2017-10-30T03:36:12.435Z,6.58
2017-10-30T03:37:21.310Z,6.58
2017-10-30T03:38:30.539Z,6.58
2017-10-30T03:39:39.072Z,6.57
2017-10-30T03:40:47.608Z,6.54
2017-10-30T03:41:56.484Z,6.55
2017-10-30T03:43:05.694Z,6.6
2017-10-30T03:44:14.235Z,6.61
2017-10-30T03:45:23.112Z,6.57
2017-10-30T03:46:31.990Z,6.6
2017-10-30T03:47:40.531Z,6.6
2017-10-30T03:48:49.405Z,6.6
2017-10-30T03:49:58.618Z,6.58
2017-10-30T03:51:07.491Z,6.55
2017-10-30T03:52:16.703Z,6.54
2017-10-30T03:53:25.577Z,6.57
2017-10-30T03:54:34.115Z,6.62
2017-10-30T03:55:43.414Z,6.52
2017-10-30T03:56:51.951Z,6.54
2017-10-30T03:58:00.561Z,6.49
2017-10-30T03:59:09.134Z,6.36
2017-10-30T04:00:18.005Z,6.52
2017-10-30T04:01:27.219Z,6.39
2017-10-30T04:02:35.758Z,6.39
2017-10-30T04:03:44.295Z,6.43
2017-10-30T04:04:53.165Z,6.39
2017-10-30T04:06:02.042Z,6.39
2017-10-30T04:07:10.913Z,6.31
2017-10-30T04:08:19.449Z,6.28
2017-10-30T04:09:28.660Z,6.26
2017-10-30T04:10:37.865Z,6.26
2017-10-30T04:11:46.739Z,6.24
2017-10-30T04:12:55.612Z,6.21
2017-10-30T04:14:04.486Z,6.18
2017-10-30T04:15:14.376Z,6.17
2017-10-30T04:16:23.250Z,6.17
2017-10-30T04:17:31.785Z,6.14
2017-10-30T04:18:40.652Z,6.15
2017-10-30T04:19:50.825Z,6.13
2017-10-30T04:21:00.036Z,6.17
2017-10-30T04:22:08.911Z,6.14
2017-10-30T04:23:17.447Z,6.18
2017-10-30T04:24:26.323Z,6.05
2017-10-30T04:25:35.200Z,6.02
2017-10-30T04:26:44.067Z,6.14
2017-10-30T04:27:52.623Z,6.07
2017-10-30T04:29:01.476Z,6.03
2017-10-30T04:30:10.347Z,6.05
2017-10-30T04:31:18.882Z,6.03
2017-10-30T04:32:27.420Z,6.02
2017-10-30T04:33:36.626Z,6.06
2017-10-30T04:34:45.162Z,5.98
2017-10-30T04:35:54.034Z,5.92
2017-10-30T04:37:02.576Z,5.91
2017-10-30T04:38:11.453Z,5.92
2017-10-30T04:39:20.326Z,5.92
2017-10-30T04:40:29.199Z,5.98
2017-10-30T04:41:37.734Z,5.91
2017-10-30T04:42:46.273Z,5.95
2017-10-30T04:43:55.149Z,5.95
2017-10-30T04:45:03.686Z,5.92
2017-10-30T04:46:13.230Z,5.98
2017-10-30T04:47:21.765Z,5.91
2017-10-30T04:48:30.638Z,5.88
2017-10-30T04:49:39.174Z,5.88
2017-10-30T04:50:47.711Z,5.98
2017-10-30T04:51:56.582Z,5.99
2017-10-30T04:53:05.122Z,5.89
2017-10-30T04:54:13.657Z,5.95
2017-10-30T04:55:22.198Z,5.89
2017-10-30T04:56:31.419Z,5.84
2017-10-30T04:57:40.292Z,5.92
2017-10-30T04:58:49.163Z,5.82
2017-10-30T04:59:58.039Z,5.82
2017-10-30T05:01:07.248Z,5.78
2017-10-30T05:02:15.783Z,5.88
2017-10-30T05:03:24.655Z,5.84
2017-10-30T05:04:33.534Z,5.85
2017-10-30T05:05:42.070Z,5.85
2017-10-30T05:06:50.944Z,5.85
2017-10-30T05:07:59.481Z,5.89
2017-10-30T05:09:08.019Z,5.85
2017-10-30T05:10:16.895Z,5.84
2017-10-30T05:11:25.769Z,5.85
2017-10-30T05:12:35.314Z,5.8
2017-10-30T05:13:44.197Z,5.87
2017-10-30T05:14:52.730Z,5.82
2017-10-30T05:16:01.604Z,5.75
2017-10-30T05:17:11.154Z,5.75
2017-10-30T05:18:20.026Z,5.84
2017-10-30T05:19:28.564Z,5.78
2017-10-30T05:20:37.440Z,5.85
2017-10-30T05:21:46.311Z,5.85
2017-10-30T05:22:55.181Z,5.88
2017-10-30T05:24:04.386Z,5.81
2017-10-30T05:25:12.924Z,5.75
2017-10-30T05:26:21.463Z,5.8
2017-10-30T05:27:29.994Z,5.82
2017-10-30T05:28:38.529Z,5.7
2017-10-30T05:29:47.400Z,5.75
2017-10-30T05:30:56.271Z,5.7
2017-10-30T05:32:05.147Z,5.81
2017-10-30T05:33:14.384Z,5.85
2017-10-30T05:34:22.919Z,5.81
2017-10-30T05:35:32.464Z,5.85
2017-10-30T05:36:41.002Z,5.84
2017-10-30T05:37:50.210Z,5.98
2017-10-30T05:38:59.086Z,5.99
2017-10-30T05:40:08.299Z,5.92
2017-10-30T05:41:17.174Z,5.99
2017-10-30T05:42:26.051Z,5.98
2017-10-30T05:43:34.588Z,6.05
2017-10-30T05:44:43.796Z,6.06
2017-10-30T05:45:52.668Z,6.03
2017-10-30T05:47:01.544Z,6.18
2017-10-30T05:48:10.754Z,6.13
2017-10-30T05:49:19.628Z,6.09
2017-10-30T05:50:28.498Z,6.07
2017-10-30T05:51:37.369Z,6.09
2017-10-30T05:52:45.904Z,6.14
2017-10-30T05:53:55.117Z,6.15
2017-10-30T05:55:04.326Z,6.26
2017-10-30T05:56:13.203Z,6.17
2017-10-30T05:57:21.737Z,6.26
2017-10-30T05:58:30.275Z,6.24
2017-10-30T05:59:40.165Z,6.18
2017-10-30T06:00:48.702Z,6.26
2017-10-30T06:01:57.911Z,6.26
2017-10-30T06:03:06.450Z,6.24
2017-10-30T06:04:15.330Z,6.29
2017-10-30T06:05:24.536Z,6.25
2017-10-30T06:06:33.741Z,6.24
2017-10-30T06:07:42.616Z,6.28
2017-10-30T06:08:51.152Z,6.26
2017-10-30T06:10:00.026Z,6.24
2017-10-30T06:11:08.562Z,6.24
2017-10-30T06:12:17.432Z,6.15
2017-10-30T06:13:26.304Z,6.18
2017-10-30T06:14:34.839Z,6.14
2017-10-30T06:15:43.713Z,6.17
2017-10-30T06:16:52.917Z,6.07
2017-10-30T06:18:01.792Z,6.17
2017-10-30T06:19:10.668Z,6.09
2017-10-30T06:20:19.878Z,6.14
2017-10-30T06:21:29.091Z,5.98
2017-10-30T06:22:38.308Z,6.06
2017-10-30T06:23:47.192Z,6.14
2017-10-30T06:24:55.725Z,6.05
2017-10-30T06:26:04.260Z,6
2017-10-30T06:27:12.799Z,6.02
2017-10-30T06:28:21.674Z,6.05
2017-10-30T06:29:30.545Z,6.03
2017-10-30T06:30:39.417Z,6.13
2017-10-30T06:31:48.288Z,6.07
2017-10-30T06:32:57.161Z,6.14
2017-10-30T06:34:05.694Z,6.13
2017-10-30T06:35:14.228Z,6.09
2017-10-30T06:36:23.101Z,6.05
2017-10-30T06:37:32.308Z,6.1
2017-10-30T06:38:40.846Z,6.13
2017-10-30T06:39:49.387Z,6.06
2017-10-30T06:40:58.268Z,6.09
2017-10-30T06:42:07.146Z,6.14
2017-10-30T06:43:16.021Z,6.17
2017-10-30T06:44:24.559Z,6.05
2017-10-30T06:45:33.503Z,6.05
2017-10-30T06:46:42.367Z,6.05
2017-10-30T06:47:51.248Z,6.03
2017-10-30T06:48:59.784Z,6.14
2017-10-30T06:50:08.326Z,6.07
2017-10-30T06:51:16.863Z,6.1
2017-10-30T06:52:25.737Z,6.05
2017-10-30T06:53:34.944Z,6.09
2017-10-30T06:54:43.503Z,6.2
2017-10-30T06:55:52.351Z,6.13
2017-10-30T06:57:01.573Z,6.15
2017-10-30T06:58:10.444Z,6.14
2017-10-30T06:59:18.980Z,6.13
2017-10-30T07:00:27.863Z,6.13
2017-10-30T07:01:36.737Z,6.1
2017-10-30T07:02:45.275Z,6.2
2017-10-30T07:03:54.491Z,6.21
2017-10-30T07:05:03.366Z,6.25
2017-10-30T07:06:12.242Z,6.29
2017-10-30T07:07:21.115Z,6.28
2017-10-30T07:08:29.985Z,6.26
2017-10-30T07:09:38.858Z,6.31
2017-10-30T07:10:48.067Z,6.37
2017-10-30T07:11:57.289Z,6.39
2017-10-30T07:13:06.162Z,6.4
2017-10-30T07:14:15.373Z,6.43
2017-10-30T07:15:24.242Z,6.37
2017-10-30T07:16:32.776Z,6.42
2017-10-30T07:17:41.311Z,6.61
2017-10-30T07:18:50.523Z,6.54
2017-10-30T07:19:59.397Z,6.57
2017-10-30T07:21:08.272Z,6.57
2017-10-30T07:22:17.482Z,6.7
2017-10-30T07:23:26.353Z,6.73
2017-10-30T07:24:34.889Z,6.68
2017-10-30T07:25:43.763Z,6.75
2017-10-30T07:26:52.303Z,6.7
2017-10-30T07:28:01.176Z,6.7
2017-10-30T07:29:09.715Z,6.65
2017-10-30T07:30:18.592Z,6.78
2017-10-30T07:31:27.464Z,6.78
2017-10-30T07:32:36.675Z,6.8
2017-10-30T07:33:46.224Z,6.75
2017-10-30T07:34:55.098Z,6.8
2017-10-30T07:36:03.975Z,6.91
2017-10-30T07:37:13.313Z,6.85
2017-10-30T07:38:22.191Z,6.94
2017-10-30T07:39:31.065Z,6.93
2017-10-30T07:40:39.604Z,7
2017-10-30T07:41:48.473Z,7.04
2017-10-30T07:42:57.019Z,7
2017-10-30T07:44:06.225Z,7.03
2017-10-30T07:45:15.467Z,7.05
2017-10-30T07:46:24.379Z,6.98
2017-10-30T07:47:32.918Z,7.08
2017-10-30T07:48:41.463Z,7.03
2017-10-30T07:49:50.346Z,7.15
2017-10-30T07:51:00.544Z,7.11
2017-10-30T07:52:10.360Z,7.21
2017-10-30T07:53:19.288Z,7.26
2017-10-30T07:54:28.162Z,7.23
2017-10-30T07:55:37.711Z,7.22
2017-10-30T07:56:46.661Z,7.27
2017-10-30T07:57:55.201Z,7.22
2017-10-30T07:59:04.078Z,7.29
2017-10-30T08:00:13.301Z,7.27
2017-10-30T08:01:22.512Z,7.29
2017-10-30T08:02:31.719Z,7.16
2017-10-30T08:03:40.926Z,7.23
2017-10-30T08:04:50.142Z,7.23
2017-10-30T08:05:58.891Z,7.29
2017-10-30T08:07:07.431Z,7.36
2017-10-30T08:08:15.967Z,7.33
2017-10-30T08:09:24.838Z,7.34
2017-10-30T08:10:33.714Z,7.37
2017-10-30T08:11:42.252Z,7.41
2017-10-30T08:12:51.162Z,7.45
2017-10-30T08:13:59.762Z,7.44
2017-10-30T08:15:08.639Z,7.41
2017-10-30T08:16:17.521Z,7.56
2017-10-30T08:17:26.385Z,7.55
2017-10-30T08:18:34.924Z,7.71
2017-10-30T08:19:43.804Z,7.73
2017-10-30T08:20:52.527Z,7.77
2017-10-30T08:22:01.743Z,7.92
2017-10-30T08:23:10.279Z,7.95
2017-10-30T08:24:19.153Z,8.07
2017-10-30T08:25:28.182Z,8.11
2017-10-30T08:26:37.392Z,8.13
2017-10-30T08:27:46.267Z,8.19
2017-10-30T08:28:55.141Z,8.34
2017-10-30T08:30:04.014Z,8.31
2017-10-30T08:31:13.568Z,8.34
2017-10-30T08:32:22.787Z,8.4
2017-10-30T08:33:31.993Z,8.43
2017-10-30T08:34:40.533Z,8.49
2017-10-30T08:35:49.403Z,8.49
2017-10-30T08:36:58.277Z,8.46
2017-10-30T08:38:06.817Z,8.44
2017-10-30T08:39:16.083Z,8.39
2017-10-30T08:40:24.622Z,8.47
2017-10-30T08:41:33.160Z,8.42
2017-10-30T08:42:42.036Z,8.35
2017-10-30T08:43:50.919Z,8.42
2017-10-30T08:44:59.456Z,8.34
2017-10-30T08:46:07.991Z,8.35
2017-10-30T08:47:16.533Z,8.39
2017-10-30T08:48:25.072Z,8.4
2017-10-30T08:49:33.960Z,8.36
2017-10-30T08:50:42.510Z,8.35
2017-10-30T08:51:52.397Z,8.34
2017-10-30T08:53:01.613Z,8.46
2017-10-30T08:54:10.493Z,8.43
2017-10-30T08:55:20.110Z,8.36
2017-10-30T08:56:28.642Z,8.43
2017-10-30T08:57:37.181Z,8.46
2017-10-30T08:58:45.718Z,8.42
2017-10-30T08:59:54.257Z,8.53
2017-10-30T09:01:04.145Z,8.5
2017-10-30T09:02:13.020Z,8.53
2017-10-30T09:03:21.560Z,8.53
2017-10-30T09:04:30.434Z,8.52
2017-10-30T09:05:39.665Z,8.57
2017-10-30T09:06:48.204Z,8.57
2017-10-30T09:07:57.092Z,8.61
2017-10-30T09:09:05.634Z,8.61
2017-10-30T09:10:14.510Z,8.69
2017-10-30T09:11:23.405Z,8.67
2017-10-30T09:12:32.954Z,8.79
2017-10-30T09:13:41.839Z,8.79
2017-10-30T09:14:51.396Z,8.83
2017-10-30T09:16:58.211Z,8.85
2017-10-30T09:18:07.426Z,8.97
2017-10-30T09:19:36.819Z,8.98
2017-10-30T09:22:09.214Z,9.08
2017-10-30T09:24:22.996Z,9.08
2017-10-30T09:25:31.597Z,9.05
2017-10-30T09:26:40.813Z,9.05
2017-10-30T09:27:49.354Z,9.17
2017-10-30T09:28:57.896Z,9.2
2017-10-30T09:30:07.145Z,9.19
2017-10-30T09:31:15.708Z,9.3
2017-10-30T09:32:24.925Z,9.29
2017-10-30T09:33:33.858Z,9.3
2017-10-30T09:34:42.736Z,9.26
2017-10-30T09:35:52.280Z,9.29
2017-10-30T09:37:00.818Z,9.37
2017-10-30T09:38:09.693Z,9.32
2017-10-30T09:39:18.908Z,9.32
2017-10-30T09:40:27.549Z,9.37
2017-10-30T09:41:36.091Z,9.34
2017-10-30T09:42:45.307Z,9.37
2017-10-30T09:43:54.185Z,9.38
2017-10-30T09:45:03.062Z,9.37
2017-10-30T09:46:12.271Z,9.47
2017-10-30T09:47:21.114Z,9.38
2017-10-30T09:48:29.667Z,9.48
2017-10-30T09:49:38.210Z,9.5
2017-10-30T09:50:47.087Z,9.56
2017-10-30T09:51:55.960Z,9.57
2017-10-30T09:53:04.501Z,9.6
2017-10-30T09:54:13.713Z,9.6
2017-10-30T09:55:22.401Z,9.57
2017-10-30T09:56:31.278Z,9.63
2017-10-30T09:57:40.151Z,9.67
2017-10-30T09:58:49.372Z,9.64
2017-10-30T09:59:57.918Z,9.64
2017-10-30T10:01:07.136Z,9.7
2017-10-30T10:02:15.678Z,9.75
2017-10-30T10:03:24.558Z,9.71
2017-10-30T10:04:33.519Z,9.77
2017-10-30T10:05:42.056Z,9.8
2017-10-30T10:06:50.937Z,9.78
2017-10-30T10:07:59.478Z,9.84
2017-10-30T10:09:08.358Z,9.84
2017-10-30T10:10:17.434Z,9.88
2017-10-30T10:11:25.971Z,9.85
2017-10-30T10:12:34.513Z,9.92
2017-10-30T10:13:43.732Z,9.92
2017-10-30T10:14:52.270Z,9.98
2017-10-30T10:16:01.155Z,9.93
2017-10-30T10:17:09.708Z,9.96
2017-10-30T10:18:18.258Z,9.93
2017-10-30T10:19:27.481Z,10.02
2017-10-30T10:20:36.023Z,9.96
2017-10-30T10:21:45.232Z,10.05
2017-10-30T10:22:54.223Z,10.05
2017-10-30T10:24:04.264Z,10.07
2017-10-30T10:25:15.050Z,10.11
2017-10-30T10:26:24.269Z,10.08
2017-10-30T10:27:33.482Z,10.13
2017-10-30T10:28:42.019Z,10.11
2017-10-30T10:29:50.908Z,10.18
2017-10-30T10:30:59.457Z,10.2
2017-10-30T10:32:08.686Z,10.23
2017-10-30T10:33:17.235Z,10.25
2017-10-30T10:34:25.775Z,10.25
2017-10-30T10:35:34.315Z,10.32
2017-10-30T10:36:42.914Z,10.35
2017-10-30T10:37:51.799Z,10.41
2017-10-30T10:39:00.679Z,10.42
2017-10-30T10:40:09.903Z,10.41
2017-10-30T10:41:19.132Z,10.39
2017-10-30T10:42:28.014Z,10.41
2017-10-30T10:43:36.893Z,10.35
2017-10-30T10:44:45.770Z,10.38
2017-10-30T10:45:54.314Z,10.46
2017-10-30T10:47:03.533Z,10.47
2017-10-30T10:48:12.745Z,10.47
2017-10-30T10:49:21.285Z,10.39
2017-10-30T10:50:30.164Z,10.49
2017-10-30T10:51:39.380Z,10.51
2017-10-30T10:52:48.599Z,10.57
2017-10-30T10:53:57.141Z,10.57
2017-10-30T10:55:05.681Z,10.58
2017-10-30T10:56:14.221Z,10.61
2017-10-30T10:57:22.759Z,10.65
2017-10-30T10:58:31.637Z,10.7
2017-10-30T10:59:40.186Z,10.72
2017-10-30T11:00:48.726Z,10.73
2017-10-30T11:01:57.945Z,10.76
2017-10-30T11:03:06.483Z,10.85
2017-10-30T11:04:15.024Z,10.84
2017-10-30T11:05:23.901Z,10.9
2017-10-30T11:06:33.457Z,10.97
2017-10-30T11:07:42.670Z,11.03
2017-10-30T11:08:51.555Z,11
2017-10-30T11:10:00.772Z,11.13
2017-10-30T11:11:10.329Z,11.33
2017-10-30T11:12:19.208Z,11.31
2017-10-30T11:13:28.429Z,11.28
2017-10-30T11:14:37.642Z,11.41
2017-10-30T11:15:46.855Z,11.42
2017-10-30T11:16:55.742Z,11.38
2017-10-30T11:18:04.282Z,11.35
2017-10-30T11:19:13.166Z,11.56
2017-10-30T11:20:22.046Z,11.64
2017-10-30T11:21:31.260Z,11.46
2017-10-30T11:22:39.811Z,11.51
2017-10-30T11:23:49.027Z,11.61
2017-10-30T11:24:57.566Z,11.68
2017-10-30T11:26:06.443Z,11.76
2017-10-30T11:27:15.667Z,11.76
2017-10-30T11:28:24.546Z,11.79
2017-10-30T11:29:33.086Z,11.84
2017-10-30T11:30:41.965Z,11.88
2017-10-30T11:31:51.174Z,11.81
2017-10-30T11:33:00.050Z,11.85
2017-10-30T11:34:08.931Z,11.81
2017-10-30T11:35:17.462Z,11.79
2017-10-30T11:36:26.345Z,11.75
2017-10-30T11:37:35.227Z,11.78
2017-10-30T11:38:43.775Z,11.71
2017-10-30T11:39:53.003Z,11.7
2017-10-30T11:41:01.544Z,11.68
2017-10-30T11:42:10.083Z,11.64
2017-10-30T11:43:18.962Z,11.73
2017-10-30T11:44:27.837Z,11.81
2017-10-30T11:45:36.379Z,11.78
2017-10-30T11:46:45.594Z,11.86
2017-10-30T11:47:54.138Z,11.91
2017-10-30T11:49:03.349Z,12.01
2017-10-30T11:50:12.567Z,12.08
2017-10-30T11:51:21.441Z,12.01
2017-10-30T11:52:30.323Z,12.05
2017-10-30T11:53:39.203Z,12.03
2017-10-30T11:54:48.080Z,12.15
2017-10-30T11:55:56.962Z,12.08
2017-10-30T11:57:05.507Z,12.04
2017-10-30T11:58:14.378Z,12.04
2017-10-30T11:59:23.255Z,11.94
2017-10-30T12:00:32.129Z,11.78
2017-10-30T12:01:41.351Z,11.89
2017-10-30T12:02:49.890Z,11.78
2017-10-30T12:03:58.430Z,11.88
2017-10-30T12:05:06.971Z,11.79
2017-10-30T12:06:15.513Z,11.73
2017-10-30T12:07:24.392Z,11.64
2017-10-30T12:08:33.271Z,11.64
2017-10-30T12:09:42.146Z,11.51
2017-10-30T12:10:50.687Z,11.51
2017-10-30T12:11:59.234Z,11.56
2017-10-30T12:13:08.446Z,11.49
2017-10-30T12:14:16.987Z,11.42
2017-10-30T12:15:25.866Z,11.45
2017-10-30T12:16:34.406Z,11.48
2017-10-30T12:17:42.949Z,11.39
2017-10-30T12:18:52.161Z,11.43
2017-10-30T12:20:01.039Z,11.43
2017-10-30T12:21:10.254Z,11.39
2017-10-30T12:22:19.145Z,11.41
2017-10-30T12:23:28.034Z,11.41
2017-10-30T12:24:36.904Z,11.38
2017-10-30T12:25:45.782Z,11.34
2017-10-30T12:26:55.663Z,11.34
2017-10-30T12:28:04.875Z,11.41
2017-10-30T12:29:13.755Z,11.42
2017-10-30T12:30:22.298Z,11.45
2017-10-30T12:31:31.514Z,11.38
2017-10-30T12:32:40.052Z,11.52
2017-10-30T12:33:48.930Z,11.53
2017-10-30T12:34:57.813Z,11.48
2017-10-30T12:36:06.697Z,11.52
2017-10-30T12:37:15.575Z,11.59
2017-10-30T12:38:25.123Z,11.79
2017-10-30T12:39:33.664Z,11.84
2017-10-30T12:40:42.545Z,11.97
2017-10-30T12:41:51.763Z,12.18
2017-10-30T12:43:00.985Z,12.26
2017-10-30T12:44:09.868Z,12.26
2017-10-30T12:45:19.434Z,12.34
2017-10-30T12:46:28.312Z,12.43
2017-10-30T12:47:37.526Z,12.58
2017-10-30T12:48:46.456Z,12.62
2017-10-30T12:49:56.005Z,12.59
2017-10-30T12:51:05.223Z,12.65
2017-10-30T12:52:15.013Z,12.61
2017-10-30T12:53:23.895Z,12.62
2017-10-30T12:54:32.437Z,12.53
2017-10-30T12:55:40.981Z,12.55
2017-10-30T12:56:49.856Z,12.52
2017-10-30T12:57:59.065Z,12.4
2017-10-30T12:59:07.943Z,12.38
2017-10-30T13:00:17.155Z,12.37
2017-10-30T13:01:26.040Z,12.23
2017-10-30T13:02:34.581Z,12.2
2017-10-30T13:03:43.124Z,12.18
2017-10-30T13:04:51.662Z,12.11
2017-10-30T13:06:00.205Z,12.04
2017-10-30T13:07:09.128Z,11.98
2017-10-30T13:08:18.004Z,12.01
2017-10-30T13:09:26.881Z,11.94
2017-10-30T13:10:35.757Z,11.91
2017-10-30T13:11:44.972Z,11.95
2017-10-30T13:12:53.852Z,12.03
2017-10-30T13:14:02.725Z,12.01
2017-10-30T13:15:11.602Z,12.05
2017-10-30T13:16:20.480Z,12.22
2017-10-30T13:17:29.360Z,12.18
2017-10-30T13:18:38.577Z,12.2
2017-10-30T13:19:47.451Z,12.29
2017-10-30T13:20:56.666Z,12.31
2017-10-30T13:22:05.544Z,12.37
2017-10-30T13:23:14.421Z,12.33
2017-10-30T13:24:23.301Z,12.37
2017-10-30T13:25:31.842Z,12.41
2017-10-30T13:26:40.384Z,12.41
2017-10-30T13:27:49.274Z,12.53
2017-10-30T13:28:58.140Z,12.51
2017-10-30T13:30:07.354Z,12.7
2017-10-30T13:31:16.234Z,12.78
2017-10-30T13:32:25.114Z,12.95
2017-10-30T13:33:33.992Z,13.1
2017-10-30T13:34:43.233Z,13.2
2017-10-30T13:35:51.775Z,13.16
2017-10-30T13:37:00.318Z,13.17
2017-10-30T13:38:08.862Z,13.29
2017-10-30T13:39:17.737Z,13.17
2017-10-30T13:40:26.278Z,13.2
2017-10-30T13:41:34.822Z,13.32
2017-10-30T13:42:43.701Z,13.27
2017-10-30T13:43:52.973Z,13.21
2017-10-30T13:45:01.566Z,13.2
2017-10-30T13:46:10.490Z,13.28
2017-10-30T13:47:19.707Z,13.29
2017-10-30T13:48:28.250Z,13.24
2017-10-30T13:49:37.140Z,13.27
2017-10-30T13:50:46.025Z,13.25
2017-10-30T13:51:55.236Z,13.31
2017-10-30T13:53:04.113Z,13.14
2017-10-30T13:54:12.992Z,13.27
2017-10-30T13:55:21.867Z,13.16
2017-10-30T13:56:30.748Z,13.13
2017-10-30T13:57:39.621Z,13.1
2017-10-30T13:58:48.498Z,13.16
2017-10-30T13:59:57.039Z,13.2
2017-10-30T14:01:05.921Z,13.2
2017-10-30T14:02:14.802Z,13.2
2017-10-30T14:03:23.677Z,13.06
2017-10-30T14:04:32.219Z,12.98
2017-10-30T14:05:41.115Z,12.96
2017-10-30T14:06:49.993Z,12.84
2017-10-30T14:07:58.536Z,12.76
2017-10-30T14:09:07.413Z,12.71
2017-10-30T14:10:16.629Z,12.59
2017-10-30T14:11:25.427Z,12.56
2017-10-30T14:12:34.300Z,12.59
2017-10-30T14:13:43.194Z,12.51
2017-10-30T14:14:52.074Z,12.43
2017-10-30T14:16:00.614Z,12.31
2017-10-30T14:17:09.158Z,12.29
2017-10-30T14:18:17.698Z,12.28
2017-10-30T14:19:26.238Z,12.33
2017-10-30T14:20:34.780Z,12.31
2017-10-30T14:21:43.654Z,12.37
2017-10-30T14:22:52.533Z,12.41
2017-10-30T14:24:01.806Z,12.45
2017-10-30T14:25:11.018Z,12.4
2017-10-30T14:26:19.562Z,12.51
2017-10-30T14:27:28.551Z,12.55
2017-10-30T14:28:37.763Z,12.55
2017-10-30T14:29:46.976Z,12.58
2017-10-30T14:30:55.856Z,12.55
2017-10-30T14:32:04.398Z,12.59
2017-10-30T14:33:13.618Z,12.56
2017-10-30T14:34:22.496Z,12.7
2017-10-30T14:35:31.372Z,12.66
2017-10-30T14:36:40.585Z,12.62
2017-10-30T14:37:49.799Z,12.69
2017-10-30T14:38:59.017Z,12.65
2017-10-30T14:40:08.227Z,12.7
2017-10-30T14:41:17.465Z,12.7
2017-10-30T14:42:26.338Z,12.65
2017-10-30T14:43:34.881Z,12.7
2017-10-30T14:44:43.429Z,12.63
2017-10-30T14:45:52.983Z,12.65
2017-10-30T14:47:02.835Z,12.74
2017-10-30T14:48:11.710Z,12.63
2017-10-30T14:49:20.929Z,12.63
2017-10-30T14:50:29.475Z,12.48
2017-10-30T14:51:38.697Z,12.55
2017-10-30T14:52:47.863Z,12.43
2017-10-30T14:53:57.076Z,12.29
2017-10-30T14:55:05.957Z,12.28
2017-10-30T14:56:15.509Z,12.34
2017-10-30T14:57:24.387Z,12.33
2017-10-30T14:58:32.929Z,12.33
2017-10-30T14:59:41.469Z,12.28
2017-10-30T15:00:50.059Z,12.28
2017-10-30T15:01:58.939Z,12.41
2017-10-30T15:03:07.817Z,12.36
2017-10-30T15:04:16.373Z,12.34
2017-10-30T15:05:24.915Z,12.36
2017-10-30T15:06:33.454Z,12.44
2017-10-30T15:07:42.331Z,12.43
2017-10-30T15:08:51.442Z,12.44
2017-10-30T15:10:00.717Z,12.41
2017-10-30T15:11:09.260Z,12.38
2017-10-30T15:12:17.804Z,12.4
2017-10-30T15:13:27.021Z,12.38
2017-10-30T15:14:35.564Z,12.38